Pagrindinis puslapis
METAR-TAF:

METAR-TAF

Oro uostai :

Malė, Maldyvai

platuma: 04-12N, ilguma: 073-32E, Aukštis: 2 m

Dabartinis oras

Ataskaita buvo paskelbta 58 minutes, ne 12:00 UTC
Vėjas 12 kt iš Rytų/Šiaurės Rytų
Temperatūra 30°C
Drėgmė 75%
Slėgis 1007 hPa
Matomumas 10 km arba daugiau
Mažai debesys ne aukštis 1800 ft
Išsisklaidę debesys ne aukštis 28000 ft

METAR: VRMM 251200Z 06012KT 9999 FEW018 SCT280 30/25 Q1007 NOSIG

Laikas: 17:58 (12:58 UTC)

Prognozė

Ataskaita buvo paskelbta 1 valandą ir 58 minutes, ne 11:00 UTC
Prognozė galioja nuo 25 metu 12 UTC su 26 metu 18 UTC
Vėjas 13 kt iš Rytų/Šiaurės Rytų
Matomumas 10 km arba daugiau
Mažai debesys ne aukštis 1800 ft
Laikinai
nuo 25 metu 12 UTC su 25 metu 18 UTC
Mažai debesys ne aukštis 1900 ft, Liūtiniai kamuoliniai debesys.

TAF: VRMM 251100Z 2512/2618 07013KT 9999 FEW018 TEMPO 2512/2518 FEW019CB

Orai ataskaitas ir orų prognozės (METAR, TAF).

turimą stotys yra geltonos ir raudonos taškus žemėlapyje.

Perkelti pele per norėdami pamatyti stoties vardą.

Tada spustelėkite, norėdami matyti oro stebėjimo ir prognozės.

Norėdami pakeisti žemėlapį: spustelėkite ant žalios mygtukų su juodo kryžiaus žemyn,; žalią mygtuką su brūkšneliu, jei norite nutolinti; arba žalių rodyklių gretimoms žemėlapius.


METAR-TAF: